Terminal Aerodrome Forecast
Issued by NWS Newport/Morehead City, NC

Home | Current Version | Previous Version | Text Only | Print | Product List | Glossary On
Versions: 1 2 3 4 5 6 7 8 9 10 11 12 13 14 15 16 17
000
FTUS42 KMHX 291120
TAFEWN
TAF
KEWN 291120Z 2912/3012 33003KT P6SM SKC
     FM292100 28006KT P6SM SKC
     FM300100 21004KT P6SM SCT200
     FM300700 20005KT P6SM BKN070=

USA.gov is the U.S. government's official web portal to all federal, state and local government web resources and services.